createdAt,value
2022-11-06T00:01:27.015Z,9.37
2022-11-06T00:03:55.577Z,10.10
2022-11-06T00:06:42.406Z,10.88
2022-11-06T00:09:11.667Z,11.21
2022-11-06T00:11:40.009Z,10.92
2022-11-06T00:14:07.771Z,10.85
2022-11-06T00:16:35.319Z,11.04
2022-11-06T00:19:03.841Z,10.97
2022-11-06T00:21:33.248Z,11.06
2022-11-06T00:24:03.788Z,11.06
2022-11-06T00:26:32.446Z,10.98
2022-11-06T00:29:00.797Z,10.98
2022-11-06T00:31:30.239Z,10.76
2022-11-06T00:33:59.627Z,9.98
2022-11-06T00:36:30.225Z,10.67
2022-11-06T00:39:00.087Z,10.60
2022-11-06T00:41:28.111Z,10.13
2022-11-06T00:43:58.121Z,10.15
2022-11-06T00:46:26.043Z,10.41
2022-11-06T00:48:54.164Z,10.70
2022-11-06T00:51:23.613Z,10.34
2022-11-06T00:53:55.373Z,10.41
2022-11-06T00:56:24.866Z,9.66
2022-11-06T00:58:53.022Z,10.22
2022-11-06T01:01:24.075Z,10.55
2022-11-06T01:03:54.100Z,10.61
2022-11-06T01:06:23.892Z,10.53
2022-11-06T01:08:51.977Z,10.21
2022-11-06T01:11:21.867Z,10.57
2022-11-06T01:13:53.289Z,10.54
2022-11-06T01:16:21.067Z,10.68
2022-11-06T01:18:49.133Z,10.54
2022-11-06T01:21:19.813Z,10.68
2022-11-06T01:23:47.760Z,10.60
2022-11-06T01:26:28.826Z,10.61
2022-11-06T01:29:04.872Z,10.58
2022-11-06T01:31:34.307Z,9.14
2022-11-06T01:34:03.265Z,9.81
2022-11-06T01:36:31.464Z,10.29
2022-11-06T01:39:00.888Z,10.28
2022-11-06T01:41:30.587Z,10.26
2022-11-06T01:44:00.541Z,9.42
2022-11-06T01:46:31.621Z,8.94
2022-11-06T01:49:01.835Z,9.74
2022-11-06T01:51:32.063Z,10.08
2022-11-06T01:53:59.694Z,10.40
2022-11-06T01:56:27.280Z,10.29
2022-11-06T01:58:56.438Z,9.72
2022-11-06T02:01:24.371Z,9.94
2022-11-06T02:04:00.697Z,10.31
2022-11-06T02:06:28.219Z,10.14
2022-11-06T02:08:55.769Z,10.59
2022-11-06T02:11:23.231Z,9.96
2022-11-06T02:14:02.714Z,10.38
2022-11-06T02:16:38.751Z,10.22
2022-11-06T02:19:25.132Z,9.81
2022-11-06T02:22:12.295Z,9.44
2022-11-06T02:25:06.988Z,9.94
2022-11-06T02:27:36.519Z,10.37
2022-11-06T02:30:08.130Z,10.48
2022-11-06T02:32:40.674Z,10.18
2022-11-06T02:35:19.091Z,10.52
2022-11-06T02:37:48.316Z,10.38
2022-11-06T02:40:18.426Z,9.69
2022-11-06T02:42:51.226Z,9.92
2022-11-06T02:45:21.037Z,9.81
2022-11-06T02:47:54.406Z,9.02
2022-11-06T02:50:27.266Z,9.65
2022-11-06T02:52:57.932Z,9.65
2022-11-06T02:55:30.078Z,9.43
2022-11-06T02:58:03.922Z,8.86
2022-11-06T03:00:33.499Z,9.88
2022-11-06T03:03:05.694Z,10.08
2022-11-06T03:05:37.053Z,10.01
2022-11-06T03:08:12.893Z,10.28
2022-11-06T03:10:46.217Z,9.98
2022-11-06T03:13:20.889Z,9.14
2022-11-06T03:15:57.598Z,9.94
2022-11-06T03:18:31.069Z,10.19
2022-11-06T03:21:03.971Z,10.05
2022-11-06T03:23:36.189Z,10.10
2022-11-06T03:26:13.857Z,10.35
2022-11-06T03:28:52.250Z,8.87
2022-11-06T03:31:27.356Z,9.65
2022-11-06T03:33:59.636Z,9.78
2022-11-06T03:36:32.968Z,9.52
2022-11-06T03:39:03.446Z,9.62
2022-11-06T03:41:36.726Z,9.56
2022-11-06T03:44:08.328Z,8.64
2022-11-06T03:46:39.658Z,8.53
2022-11-06T03:49:12.098Z,9.50
2022-11-06T03:51:43.830Z,9.73
2022-11-06T03:54:15.103Z,9.38
2022-11-06T03:56:46.927Z,9.32
2022-11-06T03:59:19.199Z,9.48
2022-11-06T04:01:49.189Z,9.77
2022-11-06T04:04:22.775Z,9.94
2022-11-06T04:06:54.433Z,9.85
2022-11-06T04:09:42.787Z,8.64
2022-11-06T04:12:32.106Z,8.91
2022-11-06T04:15:02.054Z,8.73
2022-11-06T04:17:30.574Z,7.47
2022-11-06T04:20:02.355Z,8.35
2022-11-06T04:22:45.798Z,8.91
2022-11-06T04:25:43.707Z,8.85
2022-11-06T04:28:27.436Z,8.71
2022-11-06T04:31:06.622Z,8.39
2022-11-06T04:33:42.215Z,8.37
2022-11-06T04:36:21.982Z,9.05
2022-11-06T04:38:56.738Z,8.64
2022-11-06T04:41:34.550Z,8.95
2022-11-06T04:44:08.220Z,9.33
2022-11-06T04:46:43.218Z,9.58
2022-11-06T04:49:12.050Z,8.49
2022-11-06T04:51:41.670Z,9.24
2022-11-06T04:54:10.976Z,8.49
2022-11-06T04:56:44.521Z,8.39
2022-11-06T04:59:15.922Z,8.72
2022-11-06T05:01:44.988Z,8.70
2022-11-06T05:04:13.025Z,9.23
2022-11-06T05:06:40.524Z,8.62
2022-11-06T05:09:07.962Z,8.20
2022-11-06T05:11:35.410Z,8.79
2022-11-06T05:14:02.816Z,7.96
2022-11-06T05:16:30.202Z,8.04
2022-11-06T05:18:58.922Z,8.45
2022-11-06T05:21:43.739Z,8.99
2022-11-06T05:24:11.567Z,8.57
2022-11-06T05:26:38.977Z,8.04
2022-11-06T05:29:06.533Z,8.22
2022-11-06T05:31:33.930Z,8.71
2022-11-06T05:34:02.740Z,9.02
2022-11-06T05:36:30.135Z,8.03
2022-11-06T05:38:57.681Z,8.30
2022-11-06T05:41:25.134Z,8.21
2022-11-06T05:43:52.606Z,8.82
2022-11-06T05:46:42.868Z,9.02
2022-11-06T05:49:09.695Z,9.23
2022-11-06T05:51:37.120Z,9.12
2022-11-06T05:54:04.707Z,9.15
2022-11-06T05:56:32.192Z,8.78
2022-11-06T05:58:59.563Z,8.18
2022-11-06T06:01:26.991Z,8.29
2022-11-06T06:03:54.482Z,8.97
2022-11-06T06:06:23.249Z,9.28
2022-11-06T06:08:50.659Z,8.90
2022-11-06T06:11:18.149Z,8.74
2022-11-06T06:13:45.650Z,8.48
2022-11-06T06:16:13.022Z,8.59
2022-11-06T06:18:40.460Z,9.23
2022-11-06T06:21:07.879Z,8.84
2022-11-06T06:23:36.597Z,8.55
2022-11-06T06:26:05.041Z,8.57
2022-11-06T06:28:33.068Z,9.17
2022-11-06T06:31:01.966Z,9.27
2022-11-06T06:33:29.667Z,8.61
2022-11-06T06:35:57.118Z,8.86
2022-11-06T06:38:25.900Z,9.26
2022-11-06T06:40:54.801Z,9.09
2022-11-06T06:43:22.199Z,8.98
2022-11-06T06:45:49.588Z,8.26
2022-11-06T06:48:17.111Z,9.12
2022-11-06T06:50:44.520Z,9.09
2022-11-06T06:53:13.296Z,9.09
2022-11-06T06:55:41.965Z,9.24
2022-11-06T06:58:16.630Z,8.96
2022-11-06T07:00:45.248Z,8.57
2022-11-06T07:03:12.773Z,9.50
2022-11-06T07:05:41.115Z,9.12
2022-11-06T07:08:08.773Z,9.05
2022-11-06T07:10:36.381Z,9.39
2022-11-06T07:13:04.522Z,9.69
2022-11-06T07:15:33.829Z,9.77
2022-11-06T07:18:04.931Z,9.28
2022-11-06T07:20:32.804Z,9.98
2022-11-06T07:23:00.773Z,8.66
2022-11-06T07:25:28.233Z,9.80
2022-11-06T07:28:00.323Z,9.17
2022-11-06T07:30:29.272Z,9.74
2022-11-06T07:33:00.578Z,9.88
2022-11-06T07:35:28.026Z,9.96
2022-11-06T07:37:55.423Z,10.09
2022-11-06T07:40:22.788Z,10.08
2022-11-06T07:42:50.177Z,10.20
2022-11-06T07:45:17.774Z,9.88
2022-11-06T07:47:45.162Z,9.85
2022-11-06T07:50:13.921Z,9.85
2022-11-06T07:52:41.296Z,10.08
2022-11-06T07:55:09.871Z,10.00
2022-11-06T07:57:38.333Z,10.30
2022-11-06T08:00:07.274Z,10.14
2022-11-06T08:02:34.733Z,9.89
2022-11-06T08:05:02.257Z,9.42
2022-11-06T08:07:30.994Z,10.29
2022-11-06T08:09:58.442Z,10.26
2022-11-06T08:12:26.726Z,10.03
2022-11-06T08:17:21.894Z,10.56
2022-11-06T08:19:49.634Z,10.55
2022-11-06T08:22:17.141Z,10.62
2022-11-06T08:24:45.898Z,10.74
2022-11-06T08:27:13.361Z,10.79
2022-11-06T08:29:41.721Z,10.68
2022-11-06T08:32:09.626Z,9.99
2022-11-06T08:34:37.191Z,10.32
2022-11-06T08:37:04.602Z,10.07
2022-11-06T08:39:32.097Z,10.35
2022-11-06T08:42:01.802Z,10.64
2022-11-06T08:44:29.280Z,10.59
2022-11-06T08:46:56.673Z,10.58
2022-11-06T08:49:24.168Z,10.91
2022-11-06T08:51:51.599Z,10.57
2022-11-06T08:54:19.101Z,11.01
2022-11-06T08:56:46.545Z,10.82
2022-11-06T08:59:15.349Z,10.68
2022-11-06T09:01:42.841Z,9.76
2022-11-06T09:04:10.480Z,10.25
2022-11-06T09:06:37.983Z,11.11
2022-11-06T09:09:05.679Z,11.10
2022-11-06T09:11:33.368Z,12.60
2022-11-06T09:14:00.869Z,14.89
2022-11-06T09:16:29.651Z,15.68
2022-11-06T09:18:57.842Z,15.48
2022-11-06T09:21:25.464Z,15.14
2022-11-06T09:23:52.956Z,15.10
2022-11-06T09:26:20.378Z,16.46
2022-11-06T09:28:47.849Z,16.45
2022-11-06T09:31:15.283Z,15.62
2022-11-06T09:33:44.461Z,15.71
2022-11-06T09:36:11.905Z,16.10
2022-11-06T09:38:39.530Z,15.82
2022-11-06T09:41:07.435Z,14.53
2022-11-06T09:44:04.704Z,13.50
2022-11-06T09:46:34.923Z,13.27
2022-11-06T09:49:11.874Z,12.85
2022-11-06T09:51:42.514Z,12.16
2022-11-06T09:54:16.185Z,11.90
2022-11-06T09:56:47.095Z,11.67
2022-11-06T09:59:18.160Z,12.30
2022-11-06T10:01:49.709Z,12.10
2022-11-06T10:04:31.644Z,12.20
2022-11-06T10:06:59.103Z,12.35
2022-11-06T10:09:26.647Z,12.09
2022-11-06T10:12:04.183Z,11.77
2022-11-06T10:14:46.542Z,12.28
2022-11-06T10:17:25.241Z,12.62
2022-11-06T10:20:01.053Z,12.07
2022-11-06T10:22:37.408Z,12.58
2022-11-06T10:25:19.416Z,12.64
2022-11-06T10:28:02.150Z,11.91
2022-11-06T10:30:39.804Z,11.84
2022-11-06T10:33:21.142Z,12.12
2022-11-06T10:35:55.595Z,12.36
2022-11-06T10:38:26.590Z,12.58
2022-11-06T10:40:55.855Z,12.81
2022-11-06T10:43:31.069Z,12.66
2022-11-06T10:46:07.495Z,12.75
2022-11-06T10:48:41.566Z,12.27
2022-11-06T10:51:28.224Z,12.88
2022-11-06T10:54:08.599Z,12.65
2022-11-06T10:56:52.379Z,13.03
2022-11-06T10:59:20.248Z,13.00
2022-11-06T11:01:47.853Z,12.11
2022-11-06T11:04:15.452Z,12.94
2022-11-06T11:06:44.512Z,13.49
2022-11-06T11:09:28.468Z,13.48
2022-11-06T11:11:56.066Z,13.32
2022-11-06T11:14:25.186Z,13.60
2022-11-06T11:16:53.353Z,13.38
2022-11-06T11:19:27.091Z,13.42
2022-11-06T11:21:58.325Z,12.56
2022-11-06T11:24:26.565Z,12.67
2022-11-06T11:26:56.889Z,13.13
2022-11-06T11:29:27.293Z,12.83
2022-11-06T11:31:58.306Z,13.02
2022-11-06T11:34:28.310Z,12.65
2022-11-06T11:37:00.330Z,12.33
2022-11-06T11:39:32.830Z,12.83
2022-11-06T11:42:27.016Z,13.34
2022-11-06T11:45:52.817Z,12.61
2022-11-06T11:48:20.316Z,12.21
2022-11-06T11:50:47.791Z,12.94
2022-11-06T11:53:21.944Z,12.71
2022-11-06T11:55:52.873Z,13.52
2022-11-06T11:58:24.567Z,13.05
2022-11-06T12:00:55.588Z,12.86
2022-11-06T12:03:26.946Z,13.30
2022-11-06T12:05:55.442Z,12.86
2022-11-06T12:08:26.818Z,12.66
2022-11-06T12:11:03.508Z,12.88
2022-11-06T12:13:31.172Z,13.01
2022-11-06T12:16:00.970Z,13.00
2022-11-06T12:18:33.919Z,12.89
2022-11-06T12:21:06.168Z,12.25
2022-11-06T12:23:41.411Z,12.43
2022-11-06T12:26:18.618Z,13.33
2022-11-06T12:28:50.882Z,13.25
2022-11-06T12:31:24.495Z,13.42
2022-11-06T12:34:14.489Z,13.52
2022-11-06T12:36:47.085Z,13.63
2022-11-06T12:39:24.577Z,13.12
2022-11-06T12:41:55.848Z,13.24
2022-11-06T12:44:23.353Z,13.57
2022-11-06T12:47:00.049Z,13.00
2022-11-06T12:49:43.003Z,12.77
2022-11-06T12:52:25.149Z,13.02
2022-11-06T12:55:12.467Z,13.15
2022-11-06T12:57:50.879Z,13.56
2022-11-06T13:00:21.649Z,13.12
2022-11-06T13:03:20.324Z,13.59
2022-11-06T13:05:56.043Z,13.18
2022-11-06T13:08:36.516Z,13.30
2022-11-06T13:11:14.591Z,13.63
2022-11-06T13:13:54.094Z,13.79
2022-11-06T13:16:30.535Z,13.76
2022-11-06T13:19:05.900Z,13.89
2022-11-06T13:21:57.850Z,13.67
2022-11-06T13:24:32.429Z,13.08
2022-11-06T13:27:09.461Z,13.17
2022-11-06T13:29:38.526Z,13.14
2022-11-06T13:32:12.972Z,12.53
2022-11-06T13:34:43.291Z,12.79
2022-11-06T13:37:20.827Z,12.29
2022-11-06T13:39:53.439Z,12.95
2022-11-06T13:42:27.836Z,13.06
2022-11-06T13:44:56.707Z,12.84
2022-11-06T13:47:35.429Z,12.87
2022-11-06T13:50:07.222Z,12.74
2022-11-06T13:52:42.704Z,13.20
2022-11-06T13:55:17.521Z,13.48
2022-11-06T13:58:06.513Z,12.87
2022-11-06T14:00:45.945Z,13.53
2022-11-06T14:03:45.198Z,13.40
2022-11-06T14:06:17.826Z,12.99
2022-11-06T14:08:48.675Z,13.71
2022-11-06T14:11:18.499Z,13.83
2022-11-06T14:14:01.075Z,13.63
2022-11-06T14:16:32.045Z,12.86
2022-11-06T14:19:03.706Z,13.01
2022-11-06T14:21:53.413Z,13.58
2022-11-06T14:24:39.315Z,13.75
2022-11-06T14:27:11.231Z,13.47
2022-11-06T14:29:58.081Z,12.95
2022-11-06T14:32:37.390Z,13.51
2022-11-06T14:35:50.735Z,13.61
2022-11-06T14:38:37.206Z,13.48
2022-11-06T14:41:50.080Z,13.40
2022-11-06T14:44:49.413Z,13.07
2022-11-06T14:47:30.152Z,13.14
2022-11-06T14:50:02.003Z,12.88
2022-11-06T14:52:39.111Z,13.50
2022-11-06T14:55:08.483Z,13.51
2022-11-06T14:57:42.586Z,13.45
2022-11-06T15:00:33.909Z,13.52
2022-11-06T15:03:04.329Z,13.36
2022-11-06T15:05:42.207Z,12.72
2022-11-06T15:08:10.110Z,13.00
2022-11-06T15:11:04.470Z,13.07
2022-11-06T15:13:32.261Z,13.09
2022-11-06T15:16:06.184Z,13.16
2022-11-06T15:18:37.193Z,13.18
2022-11-06T15:21:08.917Z,13.25
2022-11-06T15:23:42.964Z,13.07
2022-11-06T15:26:21.003Z,13.19
2022-11-06T15:28:54.978Z,13.07
2022-11-06T15:31:23.263Z,13.14
2022-11-06T15:33:59.882Z,12.93
2022-11-06T15:36:29.035Z,12.66
2022-11-06T15:38:56.472Z,12.69
2022-11-06T15:41:26.202Z,13.00
2022-11-06T15:43:55.857Z,12.36
2022-11-06T15:46:25.923Z,12.80
2022-11-06T15:49:18.828Z,12.56
2022-11-06T15:51:52.690Z,12.17
2022-11-06T15:54:31.809Z,12.23
2022-11-06T15:57:00.090Z,12.55
2022-11-06T15:59:27.557Z,12.78
2022-11-06T16:01:55.115Z,12.44
2022-11-06T16:04:25.999Z,12.31
2022-11-06T16:06:55.032Z,12.72
2022-11-06T16:09:24.847Z,12.30
2022-11-06T16:11:53.526Z,12.02
2022-11-06T16:14:22.210Z,12.35
2022-11-06T16:16:51.090Z,12.53
2022-11-06T16:19:26.998Z,12.57
2022-11-06T16:21:58.007Z,12.54
2022-11-06T16:24:28.943Z,12.49
2022-11-06T16:26:57.007Z,12.40
2022-11-06T16:29:27.897Z,12.53
2022-11-06T16:32:05.090Z,12.40
2022-11-06T16:34:39.864Z,12.47
2022-11-06T16:37:29.627Z,12.43
2022-11-06T16:39:59.375Z,12.38
2022-11-06T16:42:29.356Z,12.25
2022-11-06T16:45:15.926Z,12.32
2022-11-06T16:47:43.376Z,12.35
2022-11-06T16:50:46.637Z,12.47
2022-11-06T16:53:19.857Z,12.36
2022-11-06T16:55:54.917Z,12.30
2022-11-06T16:58:23.022Z,12.38
2022-11-06T17:00:59.491Z,12.25
2022-11-06T17:03:30.189Z,11.90
2022-11-06T17:05:59.875Z,12.49
2022-11-06T17:08:35.606Z,12.40
2022-11-06T17:11:20.571Z,12.53
2022-11-06T17:13:49.409Z,12.40
2022-11-06T17:16:19.089Z,12.47
2022-11-06T17:18:47.682Z,12.58
2022-11-06T17:21:18.993Z,12.36
2022-11-06T17:23:47.672Z,12.33
2022-11-06T17:26:19.733Z,12.22
2022-11-06T17:28:47.172Z,12.29
2022-11-06T17:31:16.635Z,12.24
2022-11-06T17:33:44.491Z,12.22
2022-11-06T17:36:18.989Z,12.23
2022-11-06T17:38:47.041Z,12.08
2022-11-06T17:41:29.548Z,12.11
2022-11-06T17:43:57.793Z,12.29
2022-11-06T17:46:27.168Z,12.24
2022-11-06T17:48:55.269Z,12.02
2022-11-06T17:51:41.868Z,11.94
2022-11-06T17:54:09.910Z,12.16
2022-11-06T17:56:38.287Z,11.89
2022-11-06T17:59:06.117Z,12.27
2022-11-06T18:01:33.791Z,12.29
2022-11-06T18:04:01.447Z,12.25
2022-11-06T18:06:30.350Z,12.35
2022-11-06T18:08:58.385Z,12.23
2022-11-06T18:11:26.121Z,12.05
2022-11-06T18:13:54.327Z,12.03
2022-11-06T18:16:24.526Z,11.74
2022-11-06T18:18:51.994Z,11.88
2022-11-06T18:21:19.500Z,11.69
2022-11-06T18:23:48.396Z,11.91
2022-11-06T18:26:15.785Z,11.59
2022-11-06T18:28:43.231Z,11.65
2022-11-06T18:31:10.599Z,11.90
2022-11-06T18:33:37.997Z,11.50
2022-11-06T18:36:07.918Z,11.78
2022-11-06T18:38:36.061Z,11.80
2022-11-06T18:41:09.351Z,11.85
2022-11-06T18:43:37.508Z,11.43
2022-11-06T18:46:06.040Z,11.96
2022-11-06T18:48:33.947Z,12.06
2022-11-06T18:51:06.372Z,11.93
2022-11-06T18:53:33.981Z,12.20
2022-11-06T18:56:01.405Z,12.17
2022-11-06T18:58:30.146Z,11.94
2022-11-06T19:01:01.907Z,11.89
2022-11-06T19:03:29.653Z,11.86
2022-11-06T19:05:57.183Z,11.79
2022-11-06T19:08:24.597Z,11.85
2022-11-06T19:10:52.067Z,11.81
2022-11-06T19:13:19.610Z,11.31
2022-11-06T19:15:48.825Z,11.55
2022-11-06T19:18:16.746Z,11.84
2022-11-06T19:20:44.364Z,10.75
2022-11-06T19:23:14.738Z,11.38
2022-11-06T19:25:42.531Z,11.59
2022-11-06T19:28:10.492Z,11.44
2022-11-06T19:30:38.199Z,11.68
2022-11-06T19:33:06.970Z,11.70
2022-11-06T19:35:34.822Z,11.58
2022-11-06T19:38:02.246Z,11.57
2022-11-06T19:40:29.864Z,11.55
2022-11-06T19:42:58.965Z,11.62
2022-11-06T19:45:27.458Z,10.66
2022-11-06T19:47:55.006Z,11.32
2022-11-06T19:50:45.691Z,11.43
2022-11-06T19:53:11.394Z,11.12
2022-11-06T19:55:39.838Z,10.15
2022-11-06T19:58:07.231Z,10.40
2022-11-06T20:00:34.613Z,10.95
2022-11-06T20:03:02.043Z,9.74
2022-11-06T20:05:31.021Z,10.81
2022-11-06T20:07:58.416Z,10.99
2022-11-06T20:10:26.132Z,10.86
2022-11-06T20:12:53.664Z,10.79
2022-11-06T20:15:23.904Z,10.85
2022-11-06T20:17:51.835Z,11.17
2022-11-06T20:20:19.475Z,11.00
2022-11-06T20:22:48.386Z,10.19
2022-11-06T20:25:16.153Z,11.06
2022-11-06T20:27:43.658Z,10.91
2022-11-06T20:30:12.432Z,11.02
2022-11-06T20:32:39.857Z,10.95
2022-11-06T20:35:08.683Z,11.46
2022-11-06T20:37:36.122Z,11.49
2022-11-06T20:40:05.829Z,11.30
2022-11-06T20:42:33.258Z,11.35
2022-11-06T20:45:00.651Z,11.40
2022-11-06T20:47:28.398Z,11.23
2022-11-06T20:49:55.833Z,11.31
2022-11-06T20:52:23.267Z,11.16
2022-11-06T20:54:50.670Z,11.08
2022-11-06T20:57:19.452Z,11.41
2022-11-06T20:59:46.844Z,11.27
2022-11-06T21:02:14.488Z,11.43
2022-11-06T21:04:43.238Z,11.26
2022-11-06T21:07:10.720Z,11.07
2022-11-06T21:09:38.191Z,10.93
2022-11-06T21:12:06.523Z,10.74
2022-11-06T21:14:35.400Z,11.34
2022-11-06T21:17:03.297Z,11.27
2022-11-06T21:19:31.176Z,10.80
2022-11-06T21:21:58.765Z,11.23
2022-11-06T21:24:26.271Z,11.08
2022-11-06T21:26:55.157Z,10.37
2022-11-06T21:29:23.756Z,10.55
2022-11-06T21:31:52.700Z,11.17
2022-11-06T21:34:20.485Z,11.01
2022-11-06T21:36:48.645Z,10.67
2022-11-06T21:39:18.510Z,11.06
2022-11-06T21:41:46.802Z,11.14
2022-11-06T21:44:15.905Z,11.26
2022-11-06T21:46:45.637Z,11.07
2022-11-06T21:49:15.485Z,11.24
2022-11-06T21:51:43.021Z,11.24
2022-11-06T21:54:29.198Z,10.82
2022-11-06T21:56:56.595Z,11.39
2022-11-06T21:59:26.107Z,11.12
2022-11-06T22:01:53.864Z,11.36
2022-11-06T22:04:22.753Z,11.37
2022-11-06T22:06:50.157Z,11.31
2022-11-06T22:09:23.419Z,11.36
2022-11-06T22:11:52.641Z,11.10
2022-11-06T22:14:20.137Z,11.13
2022-11-06T22:16:48.962Z,11.15
2022-11-06T22:19:19.971Z,11.26
2022-11-06T22:21:48.737Z,11.23
2022-11-06T22:24:16.592Z,11.40
2022-11-06T22:26:44.162Z,11.32
2022-11-06T22:29:13.804Z,11.42
2022-11-06T22:31:41.551Z,11.04
2022-11-06T22:34:10.317Z,10.97
2022-11-06T22:36:38.183Z,11.01
2022-11-06T22:39:08.958Z,11.17
2022-11-06T22:41:36.544Z,11.26
2022-11-06T22:44:05.311Z,11.21
2022-11-06T22:46:33.051Z,11.06
2022-11-06T22:49:00.850Z,12.50
2022-11-06T22:51:30.562Z,11.89
2022-11-06T22:53:58.948Z,11.86
2022-11-06T22:56:29.147Z,11.95
2022-11-06T22:58:58.300Z,13.11
2022-11-06T23:01:27.964Z,13.13
2022-11-06T23:03:57.633Z,12.12
2022-11-06T23:06:26.262Z,11.99
2022-11-06T23:08:54.313Z,12.21
2022-11-06T23:11:24.131Z,11.33
2022-11-06T23:13:53.593Z,12.48
2022-11-06T23:16:44.546Z,12.63
2022-11-06T23:19:15.686Z,12.24
2022-11-06T23:21:44.071Z,12.03
2022-11-06T23:24:12.311Z,12.26
2022-11-06T23:26:39.879Z,12.91
2022-11-06T23:29:09.352Z,12.48
2022-11-06T23:31:36.796Z,12.40
2022-11-06T23:34:04.311Z,12.72
2022-11-06T23:36:31.831Z,12.71
2022-11-06T23:38:59.496Z,12.43
2022-11-06T23:41:45.711Z,12.24
2022-11-06T23:44:33.610Z,12.75
2022-11-06T23:47:01.298Z,12.17
2022-11-06T23:49:28.746Z,12.16
2022-11-06T23:51:56.155Z,12.18
2022-11-06T23:54:23.639Z,11.65
2022-11-06T23:56:51.025Z,11.39
2022-11-06T23:59:20.074Z,11.12
